createdAt,value
2022-09-25T00:00:49.971Z,41.63
2022-09-25T00:03:17.301Z,41.72
2022-09-25T00:05:45.992Z,40.67
2022-09-25T00:08:12.894Z,39.38
2022-09-25T00:10:47.192Z,38.13
2022-09-25T00:13:14.787Z,38.85
2022-09-25T00:15:51.602Z,39.95
2022-09-25T00:18:38.294Z,41.33
2022-09-25T00:21:05.845Z,41.03
2022-09-25T00:23:33.651Z,41.72
2022-09-25T00:26:01.522Z,39.55
2022-09-25T00:28:29.458Z,37.50
2022-09-25T00:30:56.608Z,36.13
2022-09-25T00:33:23.571Z,36.83
2022-09-25T00:35:50.435Z,37.63
2022-09-25T00:38:16.998Z,36.47
2022-09-25T00:40:43.610Z,39.25
2022-09-25T00:43:39.476Z,40.45
2022-09-25T00:46:12.005Z,37.58
2022-09-25T00:48:40.774Z,35.28
2022-09-25T00:51:07.371Z,34.00
2022-09-25T00:53:36.785Z,32.90
2022-09-25T00:56:03.422Z,32.83
2022-09-25T00:58:30.025Z,33.35
2022-09-25T01:00:56.661Z,31.55
2022-09-25T01:03:23.342Z,30.83
2022-09-25T01:05:49.959Z,28.73
2022-09-25T01:08:21.999Z,28.90
2022-09-25T01:10:48.546Z,29.90
2022-09-25T01:13:15.107Z,27.60
2022-09-25T01:16:02.360Z,25.13
2022-09-25T01:18:50.825Z,24.13
2022-09-25T01:21:33.451Z,23.58
2022-09-25T01:24:31.214Z,20.98
2022-09-25T01:27:34.782Z,22.92
2022-09-25T01:30:14.773Z,22.42
2022-09-25T01:33:07.966Z,22.30
2022-09-25T01:35:54.431Z,22.92
2022-09-25T01:38:31.971Z,23.30
2022-09-25T01:41:18.732Z,21.83
2022-09-25T01:43:48.389Z,21.00
2022-09-25T01:46:37.111Z,21.10
2022-09-25T01:49:08.338Z,20.73
2022-09-25T01:51:39.482Z,20.80
2022-09-25T01:54:09.641Z,19.98
2022-09-25T01:56:39.842Z,19.58
2022-09-25T01:59:15.960Z,19.77
2022-09-25T02:01:43.048Z,22.42
2022-09-25T02:04:16.237Z,19.88
2022-09-25T02:06:44.377Z,18.42
2022-09-25T02:09:14.535Z,18.40
2022-09-25T02:11:43.892Z,18.98
2022-09-25T02:14:22.851Z,17.48
2022-09-25T02:16:52.926Z,17.80
2022-09-25T02:19:48.444Z,19.58
2022-09-25T02:22:19.997Z,19.92
2022-09-25T02:25:07.207Z,18.52
2022-09-25T02:27:34.070Z,19.80
2022-09-25T02:30:01.382Z,19.35
2022-09-25T02:32:31.865Z,19.35
2022-09-25T02:34:59.697Z,19.98
2022-09-25T02:37:26.370Z,20.83
2022-09-25T02:39:55.710Z,20.67
2022-09-25T02:42:48.098Z,20.85
2022-09-25T02:45:41.359Z,21.83
2022-09-25T02:48:24.058Z,21.92
2022-09-25T02:51:04.268Z,22.02
2022-09-25T02:53:45.281Z,21.15
2022-09-25T02:56:31.416Z,22.20
2022-09-25T02:59:07.609Z,22.42
2022-09-25T03:01:35.208Z,23.67
2022-09-25T03:04:01.929Z,24.08
2022-09-25T03:06:28.501Z,23.92
2022-09-25T03:08:56.691Z,22.85
2022-09-25T03:11:24.077Z,24.88
2022-09-25T03:14:00.531Z,25.45
2022-09-25T03:16:48.755Z,24.38
2022-09-25T03:19:16.054Z,25.90
2022-09-25T03:21:42.722Z,25.35
2022-09-25T03:24:09.628Z,28.02
2022-09-25T03:26:36.288Z,28.08
2022-09-25T03:29:03.200Z,26.75
2022-09-25T03:31:30.084Z,28.65
2022-09-25T03:33:56.761Z,29.30
2022-09-25T03:36:24.946Z,29.58
2022-09-25T03:38:53.205Z,29.92
2022-09-25T03:41:21.847Z,31.10
2022-09-25T03:43:51.293Z,30.88
2022-09-25T03:46:39.407Z,30.67
2022-09-25T03:49:06.623Z,31.73
2022-09-25T03:51:33.664Z,31.08
2022-09-25T03:54:00.251Z,31.27
2022-09-25T03:56:27.995Z,31.67
2022-09-25T03:58:54.695Z,31.65
2022-09-25T04:01:21.909Z,32.97
2022-09-25T04:03:48.971Z,34.00
2022-09-25T04:06:19.921Z,32.72
2022-09-25T04:08:47.433Z,33.25
2022-09-25T04:11:15.466Z,32.17
2022-09-25T04:13:44.088Z,32.17
2022-09-25T04:16:10.898Z,32.97
2022-09-25T04:18:37.583Z,33.70
2022-09-25T04:21:05.781Z,33.60
2022-09-25T04:23:32.567Z,34.38
2022-09-25T04:25:59.287Z,33.90
2022-09-25T04:28:25.914Z,33.85
2022-09-25T04:30:52.585Z,34.63
2022-09-25T04:33:38.094Z,35.17
2022-09-25T04:36:05.116Z,35.30
2022-09-25T04:38:32.408Z,35.45
2022-09-25T04:41:02.739Z,35.28
2022-09-25T04:43:29.901Z,34.67
2022-09-25T04:46:00.421Z,35.08
2022-09-25T04:50:53.527Z,34.53
2022-09-25T04:53:20.494Z,36.58
2022-09-25T04:55:48.005Z,36.03
2022-09-25T04:58:14.567Z,35.30
2022-09-25T05:00:42.566Z,37.10
2022-09-25T05:03:09.213Z,35.67
2022-09-25T05:05:35.938Z,36.60
2022-09-25T05:08:02.831Z,37.10
2022-09-25T05:10:30.887Z,37.60
2022-09-25T05:12:58.800Z,37.17
2022-09-25T05:15:25.860Z,36.40
2022-09-25T05:18:03.250Z,36.92
2022-09-25T05:20:29.866Z,34.47
2022-09-25T05:22:57.212Z,34.90
2022-09-25T05:25:27.162Z,35.92
2022-09-25T05:27:55.705Z,35.65
2022-09-25T05:30:22.888Z,36.15
2022-09-25T05:32:50.367Z,36.60
2022-09-25T05:35:18.399Z,35.95
2022-09-25T05:37:44.973Z,35.10
2022-09-25T05:40:11.747Z,36.95
2022-09-25T05:42:38.475Z,35.60
2022-09-25T05:45:07.640Z,36.60
2022-09-25T05:47:34.403Z,36.08
2022-09-25T05:50:01.136Z,35.28
2022-09-25T05:52:27.745Z,35.67
2022-09-25T05:54:54.386Z,34.80
2022-09-25T05:57:21.905Z,35.58
2022-09-25T05:59:49.588Z,37.05
2022-09-25T06:02:16.632Z,35.28
2022-09-25T06:04:43.343Z,35.22
2022-09-25T06:07:10.018Z,34.88
2022-09-25T06:09:36.627Z,36.78
2022-09-25T06:12:03.393Z,36.85
2022-09-25T06:14:30.376Z,36.65
2022-09-25T06:16:59.455Z,34.95
2022-09-25T06:19:28.955Z,33.70
2022-09-25T06:24:24.475Z,35.30
2022-09-25T06:26:51.116Z,34.22
2022-09-25T06:29:17.775Z,34.85
2022-09-25T06:31:44.458Z,34.67
2022-09-25T06:34:11.819Z,34.53
2022-09-25T06:36:38.942Z,33.78
2022-09-25T06:39:05.555Z,34.35
2022-09-25T06:41:32.486Z,33.80
2022-09-25T06:44:00.055Z,33.95
2022-09-25T06:46:26.786Z,33.58
2022-09-25T06:48:57.788Z,34.42
2022-09-25T06:51:24.919Z,34.72
2022-09-25T06:53:54.765Z,35.47
2022-09-25T06:56:21.479Z,34.33
2022-09-25T06:58:48.128Z,34.00
2022-09-25T07:01:14.800Z,35.00
2022-09-25T07:03:47.631Z,34.42
2022-09-25T07:06:26.463Z,34.53
2022-09-25T07:08:53.230Z,33.15
2022-09-25T07:11:24.935Z,31.70
2022-09-25T07:13:52.318Z,33.15
2022-09-25T07:16:19.637Z,33.13
2022-09-25T07:18:46.655Z,32.83
2022-09-25T07:21:17.706Z,32.30
2022-09-25T07:23:44.383Z,32.28
2022-09-25T07:26:25.100Z,33.17
2022-09-25T07:28:55.620Z,30.77
2022-09-25T07:33:49.941Z,31.67
2022-09-25T07:36:17.133Z,32.53
2022-09-25T07:38:43.878Z,30.92
2022-09-25T07:41:11.129Z,31.58
2022-09-25T07:43:38.632Z,30.10
2022-09-25T07:46:06.053Z,31.65
2022-09-25T07:48:32.702Z,32.35
2022-09-25T07:51:06.781Z,30.85
2022-09-25T07:53:33.394Z,32.13
2022-09-25T07:56:05.292Z,31.55
2022-09-25T07:58:33.030Z,31.75
2022-09-25T08:01:00.380Z,32.17
2022-09-25T08:03:27.432Z,31.05
2022-09-25T08:06:01.019Z,30.58
2022-09-25T08:08:28.188Z,31.10
2022-09-25T08:11:11.720Z,31.58
2022-09-25T08:13:38.667Z,29.08
2022-09-25T08:16:06.430Z,29.95
2022-09-25T08:18:33.365Z,28.88
2022-09-25T08:21:06.191Z,31.63
2022-09-25T08:23:32.790Z,29.08
2022-09-25T08:25:59.635Z,30.67
2022-09-25T08:28:26.362Z,30.55
2022-09-25T08:30:54.198Z,30.65
2022-09-25T08:33:20.871Z,29.20
2022-09-25T08:36:00.819Z,30.30
2022-09-25T08:38:28.199Z,31.40
2022-09-25T08:41:21.015Z,31.42
2022-09-25T08:44:21.687Z,29.05
2022-09-25T08:50:10.776Z,26.85
2022-09-25T08:52:37.942Z,25.60
2022-09-25T08:55:08.639Z,26.13
2022-09-25T08:57:45.102Z,25.70
2022-09-25T09:00:22.998Z,26.20
2022-09-25T09:02:57.556Z,23.98
2022-09-25T09:05:35.139Z,24.20
2022-09-25T09:08:06.183Z,24.77
2022-09-25T09:10:32.795Z,22.67
2022-09-25T09:13:26.513Z,22.83
2022-09-25T09:16:15.721Z,22.73
2022-09-25T09:18:42.412Z,22.80
2022-09-25T09:21:27.627Z,21.63
2022-09-25T09:24:08.085Z,22.25
2022-09-25T09:29:29.043Z,20.70
2022-09-25T09:31:59.504Z,20.58
2022-09-25T09:37:54.355Z,20.17
2022-09-25T09:40:51.689Z,19.27
2022-09-25T09:43:30.754Z,18.33
2022-09-25T09:46:08.312Z,18.10
2022-09-25T09:48:36.868Z,16.65
2022-09-25T09:51:08.725Z,16.00
2022-09-25T09:53:51.908Z,14.52
2022-09-25T09:56:25.948Z,14.93
2022-09-25T09:58:56.977Z,14.82
2022-09-25T10:01:42.132Z,13.57
2022-09-25T10:04:19.783Z,13.52
2022-09-25T10:06:58.719Z,12.50
2022-09-25T10:09:27.029Z,12.73
2022-09-25T10:12:00.549Z,12.50
2022-09-25T10:14:31.279Z,12.57
2022-09-25T10:16:58.110Z,11.70
2022-09-25T10:19:25.428Z,11.05
2022-09-25T10:21:53.389Z,10.57
2022-09-25T10:24:46.919Z,11.75
2022-09-25T10:27:36.528Z,9.77
2022-09-25T10:30:06.556Z,8.55
2022-09-25T10:32:44.900Z,7.45
2022-09-25T10:35:37.419Z,6.68
2022-09-25T10:38:04.485Z,6.30
2022-09-25T10:40:35.974Z,5.72
2022-09-25T10:43:29.160Z,6.30
2022-09-25T10:46:13.010Z,5.57
2022-09-25T10:48:58.199Z,5.53
2022-09-25T10:51:24.962Z,4.85
2022-09-25T10:54:12.618Z,4.72
2022-09-25T10:56:39.263Z,4.57
2022-09-25T10:59:24.961Z,4.82
2022-09-25T11:01:53.550Z,4.85
2022-09-25T11:04:28.273Z,4.47
2022-09-25T11:07:00.338Z,4.13
2022-09-25T11:09:32.256Z,4.22
2022-09-25T11:12:13.968Z,4.20
2022-09-25T11:14:46.603Z,4.35
2022-09-25T11:17:39.720Z,4.07
2022-09-25T11:20:16.372Z,4.53
2022-09-25T11:22:46.556Z,4.93
2022-09-25T11:25:24.646Z,5.07
2022-09-25T11:27:56.620Z,4.30
2022-09-25T11:30:23.838Z,4.00
2022-09-25T11:33:28.249Z,4.50
2022-09-25T11:36:08.152Z,4.35
2022-09-25T11:38:58.671Z,3.58
2022-09-25T11:44:31.812Z,4.00
2022-09-25T11:47:06.883Z,3.65
2022-09-25T11:49:38.559Z,3.58
2022-09-25T11:52:39.942Z,3.67
2022-09-25T11:55:15.435Z,3.25
2022-09-25T11:57:51.262Z,3.33
2022-09-25T12:00:31.356Z,2.92
2022-09-25T12:03:33.953Z,3.20
2022-09-25T12:06:27.242Z,3.42
2022-09-25T12:09:43.278Z,3.55
2022-09-25T12:12:32.234Z,3.53
2022-09-25T12:15:20.919Z,2.88
2022-09-25T12:18:07.600Z,2.88
2022-09-25T12:20:40.915Z,3.63
2022-09-25T12:23:25.350Z,3.58
2022-09-25T12:26:11.207Z,4.07
2022-09-25T12:28:54.623Z,3.17
2022-09-25T12:31:27.130Z,3.58
2022-09-25T12:34:06.140Z,2.70
2022-09-25T12:36:39.586Z,2.83
2022-09-25T12:39:40.376Z,2.60
2022-09-25T12:42:12.110Z,2.55
2022-09-25T12:44:50.177Z,3.17
2022-09-25T12:47:33.283Z,2.80
2022-09-25T12:50:14.963Z,2.67
2022-09-25T12:52:53.543Z,2.97
2022-09-25T12:55:27.543Z,2.92
2022-09-25T12:58:34.193Z,2.50
2022-09-25T13:01:26.609Z,2.88
2022-09-25T13:04:05.344Z,2.92
2022-09-25T13:06:35.704Z,3.03
2022-09-25T13:09:44.937Z,2.45
2022-09-25T13:12:18.836Z,2.80
2022-09-25T13:15:00.196Z,2.47
2022-09-25T13:17:26.958Z,3.13
2022-09-25T13:19:53.648Z,2.60
2022-09-25T13:22:24.937Z,3.33
2022-09-25T13:25:01.933Z,3.08
2022-09-25T13:27:35.315Z,2.33
2022-09-25T13:30:05.130Z,2.95
2022-09-25T13:32:34.696Z,2.50
2022-09-25T13:35:04.580Z,2.70
2022-09-25T13:37:35.993Z,2.85
2022-09-25T13:40:35.823Z,3.25
2022-09-25T13:43:20.839Z,2.60
2022-09-25T13:45:48.698Z,2.75
2022-09-25T13:48:30.865Z,2.95
2022-09-25T13:51:22.287Z,2.63
2022-09-25T13:54:05.304Z,2.60
2022-09-25T13:56:41.280Z,2.47
2022-09-25T13:59:12.294Z,2.58
2022-09-25T14:01:46.157Z,2.75
2022-09-25T14:04:15.874Z,2.97
2022-09-25T14:06:44.538Z,2.07
2022-09-25T14:09:12.794Z,7.70
2022-09-25T14:11:40.786Z,4.05
2022-09-25T14:14:14.231Z,3.40
2022-09-25T14:16:46.526Z,2.85
2022-09-25T14:19:20.321Z,2.60
2022-09-25T14:21:48.063Z,2.40
2022-09-25T14:24:23.397Z,2.78
2022-09-25T14:26:52.074Z,2.60
2022-09-25T14:29:26.118Z,2.70
2022-09-25T14:32:25.845Z,2.47
2022-09-25T14:35:16.582Z,2.85
2022-09-25T14:38:07.368Z,2.35
2022-09-25T14:40:40.884Z,3.00
2022-09-25T14:43:25.601Z,2.00
2022-09-25T14:46:15.033Z,1.98
2022-09-25T14:48:51.379Z,2.42
2022-09-25T14:51:54.227Z,2.00
2022-09-25T14:54:22.990Z,2.10
2022-09-25T14:56:52.919Z,1.75
2022-09-25T14:59:33.445Z,1.90
2022-09-25T15:04:32.204Z,1.70
2022-09-25T15:07:00.115Z,1.77
2022-09-25T15:09:47.196Z,1.80
2022-09-25T15:12:29.732Z,2.08
2022-09-25T15:15:21.564Z,3.72
2022-09-25T15:17:49.525Z,2.08
2022-09-25T15:20:19.580Z,3.05
2022-09-25T15:22:49.118Z,3.38
2022-09-25T15:25:26.811Z,2.37
2022-09-25T15:27:53.513Z,1.70
2022-09-25T15:30:20.291Z,1.55
2022-09-25T15:32:48.671Z,1.60
2022-09-25T15:35:25.915Z,1.90
2022-09-25T15:38:12.092Z,1.80
2022-09-25T15:40:38.932Z,1.85
2022-09-25T15:43:12.215Z,1.45
2022-09-25T15:46:01.707Z,1.60
2022-09-25T15:48:33.228Z,1.58
2022-09-25T15:51:25.619Z,1.42
2022-09-25T15:53:55.627Z,1.75
2022-09-25T15:56:29.699Z,1.90
2022-09-25T15:59:04.695Z,1.77
2022-09-25T16:01:51.338Z,2.20
2022-09-25T16:04:40.983Z,1.90
2022-09-25T16:07:26.483Z,1.58
2022-09-25T16:09:54.796Z,1.60
2022-09-25T16:12:34.895Z,1.98
2022-09-25T16:15:29.943Z,2.03
2022-09-25T16:18:02.858Z,2.25
2022-09-25T16:20:36.973Z,2.20
2022-09-25T16:23:05.288Z,2.20
2022-09-25T16:25:36.637Z,2.20
2022-09-25T16:28:08.562Z,2.08
2022-09-25T16:30:35.147Z,2.00
2022-09-25T16:33:31.862Z,2.40
2022-09-25T16:36:15.830Z,2.63
2022-09-25T16:39:02.319Z,2.60
2022-09-25T16:41:28.951Z,2.42
2022-09-25T16:44:16.184Z,2.40
2022-09-25T16:46:46.975Z,2.45
2022-09-25T16:49:13.820Z,2.50
2022-09-25T16:51:47.532Z,2.67
2022-09-25T16:54:15.612Z,4.07
2022-09-25T16:56:43.028Z,5.35
2022-09-25T16:59:21.689Z,3.58
2022-09-25T17:01:49.904Z,2.75
2022-09-25T17:04:16.766Z,2.92
2022-09-25T17:06:47.399Z,2.63
2022-09-25T17:09:15.015Z,2.55
2022-09-25T17:11:44.230Z,2.47
2022-09-25T17:14:24.812Z,2.72
2022-09-25T17:19:19.099Z,2.92
2022-09-25T17:21:51.131Z,2.60
2022-09-25T17:24:19.006Z,3.10
2022-09-25T17:26:46.216Z,2.95
2022-09-25T17:29:13.298Z,3.05
2022-09-25T17:31:40.150Z,3.08
2022-09-25T17:34:16.219Z,3.72
2022-09-25T17:36:42.871Z,3.50
2022-09-25T17:39:09.568Z,3.30
2022-09-25T17:41:36.587Z,3.58
2022-09-25T17:44:04.079Z,4.35
2022-09-25T17:46:33.926Z,5.07
2022-09-25T17:49:00.887Z,4.00
2022-09-25T17:51:28.410Z,3.80
2022-09-25T17:53:56.195Z,3.08
2022-09-25T17:56:23.800Z,4.18
2022-09-25T17:58:51.109Z,4.10
2022-09-25T18:01:22.590Z,4.68
2022-09-25T18:03:56.283Z,4.40
2022-09-25T18:06:23.346Z,4.60
2022-09-25T18:08:50.498Z,4.03
2022-09-25T18:11:17.243Z,4.38
2022-09-25T18:13:43.953Z,4.90
2022-09-25T18:16:16.817Z,4.10
2022-09-25T18:19:03.014Z,4.93
2022-09-25T18:21:48.225Z,4.93
2022-09-25T18:24:14.873Z,5.32
2022-09-25T18:26:42.652Z,5.10
2022-09-25T18:29:19.176Z,4.90
2022-09-25T18:31:46.441Z,5.18
2022-09-25T18:34:13.788Z,5.47
2022-09-25T18:36:40.376Z,5.50
2022-09-25T18:39:07.162Z,5.53
2022-09-25T18:41:40.407Z,4.68
2022-09-25T18:44:07.268Z,5.18
2022-09-25T18:46:40.230Z,5.60
2022-09-25T18:49:06.966Z,4.95
2022-09-25T18:51:34.043Z,5.05
2022-09-25T18:54:00.737Z,4.75
2022-09-25T18:56:28.153Z,5.43
2022-09-25T18:58:54.788Z,5.13
2022-09-25T19:01:21.626Z,5.22
2022-09-25T19:03:52.129Z,5.90
2022-09-25T19:06:18.922Z,6.22
2022-09-25T19:08:55.723Z,6.10
2022-09-25T19:11:26.317Z,6.78
2022-09-25T19:16:20.050Z,6.75
2022-09-25T19:18:46.884Z,6.63
2022-09-25T19:21:15.170Z,6.57
2022-09-25T19:23:46.300Z,6.68
2022-09-25T19:26:14.899Z,6.55
2022-09-25T19:28:41.534Z,6.40
2022-09-25T19:31:12.439Z,6.75
2022-09-25T19:33:39.175Z,7.40
2022-09-25T19:36:08.347Z,6.80
2022-09-25T19:38:36.465Z,6.85
2022-09-25T19:41:03.181Z,7.50
2022-09-25T19:43:33.688Z,8.52
2022-09-25T19:46:00.363Z,6.97
2022-09-25T19:48:27.008Z,7.00
2022-09-25T19:50:53.663Z,6.93
2022-09-25T19:53:20.268Z,8.50
2022-09-25T19:55:54.017Z,7.63
2022-09-25T19:58:23.644Z,8.13
2022-09-25T20:00:50.952Z,8.03
2022-09-25T20:03:18.015Z,9.38
2022-09-25T20:05:44.758Z,10.43
2022-09-25T20:08:11.458Z,9.98
2022-09-25T20:10:38.122Z,9.93
2022-09-25T20:13:05.077Z,9.50
2022-09-25T20:15:32.261Z,9.48
2022-09-25T20:17:59.402Z,9.57
2022-09-25T20:20:27.550Z,9.32
2022-09-25T20:22:54.177Z,9.27
2022-09-25T20:25:21.152Z,9.45
2022-09-25T20:27:52.065Z,9.27
2022-09-25T20:30:18.922Z,9.07
2022-09-25T20:32:45.569Z,9.32
2022-09-25T20:35:12.172Z,9.02
2022-09-25T20:37:38.894Z,7.75
2022-09-25T20:40:05.747Z,7.35
2022-09-25T20:42:33.863Z,6.65
2022-09-25T20:45:00.466Z,6.28
2022-09-25T20:47:33.522Z,6.28
2022-09-25T20:50:00.664Z,7.60
2022-09-25T20:52:27.835Z,6.50
2022-09-25T20:54:54.423Z,7.35
2022-09-25T20:57:21.011Z,7.13
2022-09-25T20:59:47.595Z,8.40
2022-09-25T21:02:14.305Z,7.53
2022-09-25T21:04:40.964Z,7.97
2022-09-25T21:07:07.565Z,8.45
2022-09-25T21:09:34.152Z,8.95
2022-09-25T21:12:05.397Z,7.78
2022-09-25T21:14:33.551Z,7.88
2022-09-25T21:17:00.289Z,8.65
2022-09-25T21:19:27.894Z,7.65
2022-09-25T21:21:54.484Z,9.07
2022-09-25T21:24:21.270Z,8.82
2022-09-25T21:26:48.085Z,8.82
2022-09-25T21:29:18.380Z,8.65
2022-09-25T21:31:49.683Z,9.13
2022-09-25T21:34:17.426Z,10.07
2022-09-25T21:36:45.434Z,11.02
2022-09-25T21:39:12.355Z,9.90
2022-09-25T21:41:39.017Z,10.43
2022-09-25T21:44:07.473Z,12.07
2022-09-25T21:46:37.656Z,14.07
2022-09-25T21:49:05.378Z,13.98
2022-09-25T21:51:36.740Z,13.32
2022-09-25T21:54:03.848Z,12.82
2022-09-25T21:56:31.362Z,14.25
2022-09-25T21:58:58.030Z,11.88
2022-09-25T22:01:28.665Z,12.65
2022-09-25T22:03:56.675Z,12.38
2022-09-25T22:06:31.912Z,12.88
2022-09-25T22:09:00.382Z,16.83
2022-09-25T22:11:27.433Z,14.50
2022-09-25T22:13:55.389Z,13.57
2022-09-25T22:16:26.939Z,14.13
2022-09-25T22:19:02.211Z,13.05
2022-09-25T22:21:30.597Z,13.73
2022-09-25T22:23:57.354Z,13.15
2022-09-25T22:26:24.019Z,12.52
2022-09-25T22:28:50.668Z,11.98
2022-09-25T22:31:21.904Z,11.48
2022-09-25T22:33:48.726Z,11.13
2022-09-25T22:36:15.321Z,11.55
2022-09-25T22:38:41.954Z,11.80
2022-09-25T22:41:10.525Z,14.60
2022-09-25T22:43:37.338Z,13.73
2022-09-25T22:46:04.494Z,11.07
2022-09-25T22:48:31.167Z,11.82
2022-09-25T22:50:58.508Z,13.38
2022-09-25T22:53:25.457Z,13.85
2022-09-25T22:55:52.068Z,11.48
2022-09-25T22:58:18.914Z,14.48
2022-09-25T23:00:51.038Z,12.90
2022-09-25T23:03:18.665Z,13.73
2022-09-25T23:05:45.455Z,13.32
2022-09-25T23:08:12.105Z,10.60
2022-09-25T23:11:02.554Z,10.05
2022-09-25T23:13:25.322Z,9.15
2022-09-25T23:15:51.884Z,10.27
2022-09-25T23:18:18.437Z,7.93
2022-09-25T23:20:44.982Z,7.38
2022-09-25T23:23:11.544Z,7.35
2022-09-25T23:25:38.101Z,7.75
2022-09-25T23:28:04.860Z,7.32
2022-09-25T23:30:32.679Z,8.65
2022-09-25T23:32:59.281Z,8.07
2022-09-25T23:35:25.824Z,7.65
2022-09-25T23:37:52.413Z,8.25
2022-09-25T23:40:19.127Z,8.98
2022-09-25T23:42:45.795Z,8.00
2022-09-25T23:45:12.332Z,9.40
2022-09-25T23:47:38.902Z,8.98
2022-09-25T23:50:05.865Z,8.77
2022-09-25T23:52:32.409Z,8.70
2022-09-25T23:54:59.268Z,9.40
2022-09-25T23:57:25.843Z,10.20
2022-09-25T23:59:52.455Z,10.90
